Inglenook, California
Current Conditions -  °F | °C
As of 12:20 AM on Friday 24 Oct 2014 (Local Time) from KUKI Reporting Station
Broken Clouds Broken Clouds  
Wind Chill: 57°   Ceiling: 200
Heat Index: 57°   Visibility: 10mi
Dew Point: 55°   Wind: 0mph
Humidity: 93%   Direction: NA
Pressure: 29.99"   Gusts: NA
Location:  39.4588°N, 123.715°W
Report Text: KUKI 240720Z AUTO 00000KT 10SM BKN002 14/13 A2999 RMK AO2 T01390128
Loading
Personal Weather Stations






























Interactive Weather Map
Tropical Storm Tracking
New forecast layout! Learn more

10-Day Weather Forecast

Advertisements
Track Severe Weather on mobile